Time;durP1;ratioP1;P1;durP2;ratioP2;P2;SDS_P1;SDS_P2;PMS_P1;PMS_P2;Temp;Humidity;BMP_temperature;BMP_pressure;BME280_temperature;BME280_humidity;BME280_pressure;Samples;Min_cycle;Max_cycle;Signal;HPM_P1;HPM_P2
2021/07/18 00:00:45;;;;;;;17.90;15.23;;;18.80;99.90;;;;;;6165693;28;20106;-78
2021/07/18 00:03:48;;;;;;;18.48;16.35;;;18.70;99.90;;;;;;6177993;28;20133;-78
2021/07/18 00:06:50;;;;;;;22.38;18.02;;;18.70;99.90;;;;;;6177225;28;20146;-78
2021/07/18 00:09:51;;;;;;;26.20;17.92;;;18.50;99.90;;;;;;6203236;28;20105;-78
2021/07/18 00:12:53;;;;;;;21.33;15.68;;;18.50;99.90;;;;;;6204842;28;20132;-78
2021/07/18 00:15:55;;;;;;;19.90;16.02;;;18.40;99.90;;;;;;6204065;28;20174;-78
2021/07/18 00:18:58;;;;;;;21.52;15.77;;;18.30;99.90;;;;;;6203284;28;20412;-78
2021/07/18 00:22:00;;;;;;;19.92;16.33;;;18.30;99.90;;;;;;6201379;28;20664;-78
2021/07/18 00:25:02;;;;;;;18.83;16.23;;;18.20;99.90;;;;;;6204666;28;20061;-78
2021/07/18 00:28:04;;;;;;;20.77;16.60;;;18.10;99.90;;;;;;6206977;28;20128;-78
2021/07/18 00:31:06;;;;;;;23.92;17.30;;;18.10;99.90;;;;;;6209583;28;20067;-79
2021/07/18 00:34:10;;;;;;;19.35;16.20;;;18.00;99.90;;;;;;6206330;28;20068;-78
2021/07/18 00:37:11;;;;;;;18.42;15.60;;;18.00;99.90;;;;;;6184881;28;20118;-78
2021/07/18 00:40:14;;;;;;;21.25;16.75;;;17.90;99.90;;;;;;6182255;28;20055;-78
2021/07/18 00:43:15;;;;;;;19.10;16.20;;;17.90;99.90;;;;;;6193216;28;20130;-78
2021/07/18 00:46:17;;;;;;;19.35;17.35;;;17.80;99.90;;;;;;6209452;28;20136;-78
2021/07/18 00:49:20;;;;;;;23.77;15.90;;;17.80;99.90;;;;;;6209118;28;20118;-78
2021/07/18 00:52:22;;;;;;;26.50;17.67;;;17.70;99.90;;;;;;6209090;28;20101;-78
2021/07/18 00:55:24;;;;;;;16.75;14.70;;;17.60;99.90;;;;;;6206599;28;20047;-77
2021/07/18 00:58:29;;;;;;;19.05;15.73;;;17.60;99.90;;;;;;6207303;28;20100;-78
2021/07/18 01:01:31;;;;;;;26.02;15.77;;;17.60;99.90;;;;;;6208064;28;20047;-78
2021/07/18 01:04:35;;;;;;;18.20;16.17;;;17.50;99.90;;;;;;6208179;28;20136;-78
2021/07/18 01:07:37;;;;;;;17.67;15.25;;;17.40;99.90;;;;;;6194850;28;20135;-78
2021/07/18 01:10:39;;;;;;;18.65;16.67;;;17.40;99.90;;;;;;6188190;28;20185;-77
2021/07/18 01:13:41;;;;;;;22.88;17.10;;;17.40;99.90;;;;;;6206022;28;20137;-77
2021/07/18 01:16:44;;;;;;;18.10;14.73;;;17.30;99.90;;;;;;6206974;28;20070;-78
2021/07/18 01:19:48;;;;;;;18.50;15.13;;;17.20;99.90;;;;;;6205978;28;20094;-77
2021/07/18 01:22:51;;;;;;;21.13;15.75;;;17.10;99.90;;;;;;6201149;28;20102;-78
2021/07/18 01:25:53;;;;;;;21.20;17.98;;;17.00;99.90;;;;;;6201588;28;20122;-78
2021/07/18 01:28:56;;;;;;;18.50;16.38;;;17.00;99.90;;;;;;6207205;28;20419;-78
2021/07/18 01:31:59;;;;;;;17.42;15.18;;;17.00;99.90;;;;;;6207301;28;20070;-78
2021/07/18 01:35:01;;;;;;;19.05;15.77;;;16.90;99.90;;;;;;6206211;28;20125;-77
2021/07/18 01:38:07;;;;;;;16.02;12.88;;;16.90;99.90;;;;;;6206393;28;20128;-77
2021/07/18 01:41:08;;;;;;;13.40;11.88;;;17.00;99.90;;;;;;6206589;28;20050;-77
2021/07/18 01:44:11;;;;;;;12.13;9.40;;;17.00;99.90;;;;;;6189531;28;20050;-78
2021/07/18 01:47:13;;;;;;;11.93;7.70;;;17.10;99.90;;;;;;6178315;28;20066;-77
2021/07/18 01:50:15;;;;;;;9.18;6.65;;;17.20;99.90;;;;;;6176736;28;20050;-77
2021/07/18 01:53:18;;;;;;;9.95;8.07;;;17.30;99.90;;;;;;6177976;28;20050;-77
2021/07/18 01:56:21;;;;;;;9.60;6.90;;;17.40;99.90;;;;;;6176257;28;20074;-77
2021/07/18 01:59:22;;;;;;;8.13;7.35;;;17.40;99.90;;;;;;6176789;28;20520;-78
2021/07/18 02:02:24;;;;;;;11.07;6.60;;;17.50;99.90;;;;;;6177195;28;20120;-76
2021/07/18 02:05:26;;;;;;;7.93;5.68;;;17.60;99.90;;;;;;6176920;28;20082;-77
2021/07/18 02:08:29;;;;;;;10.10;5.88;;;17.60;99.90;;;;;;6176356;28;20117;-77
2021/07/18 02:11:32;;;;;;;8.48;5.20;;;17.60;99.90;;;;;;6175730;28;20183;-76
2021/07/18 02:14:34;;;;;;;8.35;6.07;;;17.60;99.90;;;;;;6206867;22;20054;-77
2021/07/18 02:17:37;;;;;;;8.63;5.53;;;17.60;99.90;;;;;;6202718;28;20133;-78
2021/07/18 02:20:38;;;;;;;12.35;6.43;;;17.60;99.90;;;;;;6200949;28;20462;-77
2021/07/18 02:23:42;;;;;;;8.98;7.82;;;17.60;99.90;;;;;;6202272;28;20134;-78
2021/07/18 02:26:43;;;;;;;7.57;5.95;;;17.60;99.90;;;;;;6177872;28;20129;-77
2021/07/18 02:29:45;;;;;;;9.55;5.57;;;17.50;99.90;;;;;;6179421;28;20556;-76
2021/07/18 02:32:48;;;;;;;15.25;8.43;;;17.50;99.90;;;;;;6178835;28;20082;-79
2021/07/18 02:35:50;;;;;;;9.45;5.47;;;17.50;99.90;;;;;;6180088;28;20130;-78
2021/07/18 02:38:54;;;;;;;5.60;4.68;;;17.50;99.90;;;;;;6179409;28;20110;-77
2021/07/18 02:41:56;;;;;;;11.70;5.05;;;17.60;99.90;;;;;;6179212;28;20055;-77
2021/07/18 02:44:57;;;;;;;11.50;5.30;;;17.60;99.90;;;;;;6176223;28;20498;-78
2021/07/18 02:48:00;;;;;;;6.43;4.85;;;17.70;99.90;;;;;;6175581;28;20050;-77
2021/07/18 02:51:02;;;;;;;6.30;4.45;;;17.70;99.90;;;;;;6198688;28;20074;-78
2021/07/18 02:54:05;;;;;;;6.40;4.25;;;17.70;99.90;;;;;;6201677;28;20594;-77
2021/07/18 02:57:07;;;;;;;6.80;4.70;;;17.80;99.90;;;;;;6202287;28;20085;-78
2021/07/18 03:00:10;;;;;;;8.18;4.68;;;17.70;99.90;;;;;;6202313;28;20181;-77
2021/07/18 03:03:12;;;;;;;9.73;4.15;;;17.70;99.90;;;;;;6202717;28;20415;-78
2021/07/18 03:06:13;;;;;;;12.90;6.05;;;17.70;99.90;;;;;;6200676;28;20126;-78
2021/07/18 03:09:17;;;;;;;7.30;4.53;;;17.70;99.90;;;;;;6204238;28;20553;-78
2021/07/18 03:12:18;;;;;;;14.05;5.85;;;17.70;99.90;;;;;;6203930;28;20097;-78
2021/07/18 03:15:21;;;;;;;11.70;6.07;;;17.60;99.90;;;;;;6203113;28;20070;-78
2021/07/18 03:18:22;;;;;;;7.45;6.32;;;17.50;99.90;;;;;;6202226;28;20145;-77
2021/07/18 03:21:24;;;;;;;13.95;7.65;;;17.30;99.90;;;;;;6200448;28;20265;-77
2021/07/18 03:24:27;;;;;;;9.60;6.93;;;17.10;99.90;;;;;;6199983;28;20125;-76
2021/07/18 03:27:29;;;;;;;10.05;5.93;;;16.90;99.90;;;;;;6200385;28;20129;-77
2021/07/18 03:30:31;;;;;;;10.05;6.90;;;16.80;99.90;;;;;;6201482;28;20508;-76
2021/07/18 03:33:33;;;;;;;11.15;8.20;;;16.70;99.90;;;;;;6197533;28;20054;-76
2021/07/18 03:36:35;;;;;;;8.93;7.53;;;16.60;99.90;;;;;;6197296;28;20123;-76
2021/07/18 03:39:38;;;;;;;8.45;7.32;;;16.60;99.90;;;;;;6197325;28;20527;-76
2021/07/18 03:42:40;;;;;;;12.48;9.32;;;16.50;99.90;;;;;;6197242;28;20463;-76
2021/07/18 03:45:42;;;;;;;8.88;7.43;;;16.40;99.90;;;;;;6197477;28;20631;-76
2021/07/18 03:48:44;;;;;;;8.05;7.25;;;16.40;99.90;;;;;;6197224;28;20423;-76
2021/07/18 03:51:45;;;;;;;8.18;7.38;;;16.30;99.90;;;;;;6197361;28;20073;-76
2021/07/18 03:54:49;;;;;;;11.27;6.75;;;16.20;99.90;;;;;;6198067;28;20084;-76
2021/07/18 03:57:50;;;;;;;8.18;6.90;;;16.20;99.90;;;;;;6202220;28;20565;-77
2021/07/18 04:00:52;;;;;;;16.63;8.55;;;16.20;99.90;;;;;;6201935;28;20047;-76
2021/07/18 04:03:54;;;;;;;11.00;6.93;;;16.10;99.90;;;;;;6202046;28;20051;-76
2021/07/18 04:06:56;;;;;;;10.95;8.25;;;16.00;99.90;;;;;;6201865;28;20050;-76
2021/07/18 04:09:59;;;;;;;13.45;7.75;;;16.00;99.90;;;;;;6202479;28;20140;-75
2021/07/18 04:13:01;;;;;;;12.93;8.52;;;15.90;99.90;;;;;;6201539;28;20049;-76
2021/07/18 04:16:03;;;;;;;11.77;8.38;;;15.90;99.90;;;;;;6201102;28;20136;-76
2021/07/18 04:19:05;;;;;;;8.25;7.45;;;15.90;99.90;;;;;;6201688;28;20042;-76
2021/07/18 04:22:06;;;;;;;7.45;6.65;;;16.00;99.90;;;;;;6201600;28;20453;-76
2021/07/18 04:25:11;;;;;;;9.93;7.43;;;16.00;99.90;;;;;;6201206;28;20052;-75
2021/07/18 04:28:14;;;;;;;9.30;6.32;;;16.10;99.90;;;;;;6199968;28;20098;-75
2021/07/18 04:31:15;;;;;;;9.35;7.25;;;16.30;99.90;;;;;;6201404;28;20154;-75
2021/07/18 04:34:18;;;;;;;8.52;7.72;;;16.50;99.90;;;;;;6201242;28;20129;-76
2021/07/18 04:37:20;;;;;;;9.18;7.13;;;16.60;99.90;;;;;;6201741;28;20407;-76
2021/07/18 04:40:23;;;;;;;8.50;6.15;;;16.70;99.90;;;;;;6201214;28;20077;-76
2021/07/18 04:43:25;;;;;;;10.27;6.30;;;16.80;99.90;;;;;;6200859;28;20047;-75
2021/07/18 04:46:27;;;;;;;11.80;8.05;;;16.90;99.90;;;;;;6200834;28;20566;-76
2021/07/18 04:49:28;;;;;;;6.47;5.47;;;17.00;99.90;;;;;;6201530;28;20137;-76
2021/07/18 04:52:30;;;;;;;6.90;5.70;;;17.10;99.90;;;;;;6200836;28;20821;-77
2021/07/18 04:55:33;;;;;;;7.15;5.55;;;17.10;99.90;;;;;;6201328;28;20129;-77
2021/07/18 04:58:37;;;;;;;9.13;5.95;;;17.20;99.90;;;;;;6200771;28;20054;-76
2021/07/18 05:01:39;;;;;;;6.90;5.57;;;17.30;99.90;;;;;;6201436;28;20057;-76
2021/07/18 05:04:41;;;;;;;6.57;5.40;;;17.40;99.90;;;;;;6200616;28;20052;-76
2021/07/18 05:07:50;;;;;;;8.85;6.10;;;17.60;99.90;;;;;;6199915;28;20128;-76
2021/07/18 05:10:53;;;;;;;11.32;6.03;;;17.80;99.90;;;;;;6200608;28;20447;-76
2021/07/18 05:13:55;;;;;;;4.80;4.00;;;18.00;99.90;;;;;;6200878;28;20200;-76
2021/07/18 05:16:57;;;;;;;6.05;3.88;;;18.20;99.90;;;;;;6200086;28;20090;-76
2021/07/18 05:19:59;;;;;;;6.85;4.00;;;18.40;99.90;;;;;;6200171;28;20129;-76
2021/07/18 05:23:01;;;;;;;6.07;4.47;;;18.70;99.90;;;;;;6200295;28;20073;-76
2021/07/18 05:26:04;;;;;;;4.30;3.00;;;19.00;99.90;;;;;;6199869;28;20050;-76
2021/07/18 05:29:06;;;;;;;3.90;3.17;;;19.40;97.50;;;;;;6199000;28;20431;-77
2021/07/18 05:32:08;;;;;;;3.97;3.22;;;19.90;94.50;;;;;;6200031;28;20050;-76
2021/07/18 05:35:11;;;;;;;5.95;3.40;;;20.30;91.70;;;;;;6200821;28;20160;-76
2021/07/18 05:38:13;;;;;;;6.35;3.25;;;20.40;90.90;;;;;;6199608;28;20058;-76
2021/07/18 05:41:16;;;;;;;9.32;3.22;;;20.40;90.40;;;;;;6191503;28;20047;-76
2021/07/18 05:44:18;;;;;;;3.25;2.92;;;20.50;89.70;;;;;;6175485;28;20526;-76
2021/07/18 05:47:20;;;;;;;3.58;1.80;;;20.50;87.30;;;;;;6175297;28;20054;-76
2021/07/18 05:50:22;;;;;;;5.28;2.80;;;20.70;86.10;;;;;;6175742;28;20062;-76
2021/07/18 05:53:24;;;;;;;4.85;2.72;;;20.80;85.40;;;;;;6175656;28;20057;-77
2021/07/18 05:56:27;;;;;;;4.75;3.63;;;20.90;84.30;;;;;;6174558;28;20428;-77
2021/07/18 05:59:29;;;;;;;6.22;2.28;;;21.20;83.40;;;;;;6175100;28;20456;-76
2021/07/18 06:02:31;;;;;;;4.95;2.15;;;21.30;81.60;;;;;;6175015;28;20047;-76
2021/07/18 06:05:32;;;;;;;5.07;2.45;;;21.40;79.80;;;;;;6186507;28;20074;-77
2021/07/18 06:08:34;;;;;;;2.83;1.90;;;21.60;78.80;;;;;;6198562;28;20054;-77
2021/07/18 06:11:37;;;;;;;4.95;2.45;;;21.80;78.80;;;;;;6199107;28;20057;-76
2021/07/18 06:14:39;;;;;;;3.00;2.35;;;22.20;76.80;;;;;;6198497;28;20560;-76
2021/07/18 06:17:41;;;;;;;6.68;3.42;;;22.90;72.80;;;;;;6199180;28;20057;-76
2021/07/18 06:20:43;;;;;;;6.18;1.85;;;23.40;69.20;;;;;;6199057;28;20047;-76
2021/07/18 06:23:45;;;;;;;3.30;1.73;;;23.80;68.40;;;;;;6199635;28;20046;-77
2021/07/18 06:26:48;;;;;;;2.72;2.17;;;24.00;67.90;;;;;;6198643;28;20051;-76
2021/07/18 06:29:50;;;;;;;4.88;2.45;;;24.10;65.90;;;;;;6195432;28;20527;-77
2021/07/18 06:32:52;;;;;;;5.38;2.00;;;24.20;66.10;;;;;;6199303;28;20066;-77
2021/07/18 06:35:54;;;;;;;4.20;1.52;;;24.50;65.70;;;;;;6198771;28;20128;-77
2021/07/18 06:38:57;;;;;;;2.50;1.33;;;24.60;64.60;;;;;;6198743;28;20128;-77
2021/07/18 06:42:00;;;;;;;6.50;2.83;;;24.80;64.40;;;;;;6199287;28;20536;-77
2021/07/18 06:45:02;;;;;;;3.95;1.70;;;24.90;63.00;;;;;;6199267;28;20516;-77
2021/07/18 06:48:05;;;;;;;7.28;2.00;;;25.00;62.40;;;;;;6198927;28;20051;-76
2021/07/18 06:51:06;;;;;;;3.60;1.85;;;24.90;62.00;;;;;;6198975;28;20181;-76
2021/07/18 06:54:08;;;;;;;2.28;1.38;;;25.00;62.10;;;;;;6199370;28;20129;-76
2021/07/18 06:57:11;;;;;;;2.83;1.33;;;25.10;62.20;;;;;;6198677;28;20089;-77
2021/07/18 07:00:15;;;;;;;8.45;3.10;;;24.90;61.40;;;;;;6198819;28;20162;-77
2021/07/18 07:03:17;;;;;;;7.90;1.35;;;24.70;63.30;;;;;;6198723;28;20065;-76
2021/07/18 07:06:18;;;;;;;2.45;1.55;;;24.60;63.20;;;;;;6198222;28;20140;-77
2021/07/18 07:09:20;;;;;;;3.03;1.30;;;24.50;62.90;;;;;;6198756;28;20124;-77
2021/07/18 07:12:23;;;;;;;4.05;1.70;;;24.50;62.40;;;;;;6198160;28;20560;-77
2021/07/18 07:15:25;;;;;;;5.30;1.60;;;24.30;62.50;;;;;;6197382;28;20050;-76
2021/07/18 07:18:27;;;;;;;4.90;1.73;;;24.10;62.90;;;;;;6197815;28;20181;-76
2021/07/18 07:21:29;;;;;;;1.90;1.40;;;23.80;63.50;;;;;;6198446;28;20082;-77
2021/07/18 07:24:31;;;;;;;27.70;3.83;;;23.80;63.90;;;;;;6197424;28;20069;-76
2021/07/18 07:27:34;;;;;;;4.43;2.15;;;23.80;63.00;;;;;;6197530;28;20116;-76
2021/07/18 07:30:36;;;;;;;4.53;2.10;;;23.80;63.50;;;;;;6195858;28;20066;-77
2021/07/18 07:33:38;;;;;;;4.95;3.10;;;23.80;65.00;;;;;;6199282;28;20108;-77
2021/07/18 07:36:40;;;;;;;1.92;1.50;;;24.10;64.30;;;;;;6198238;28;20137;-77
2021/07/18 07:39:42;;;;;;;3.13;1.58;;;24.30;63.90;;;;;;6197939;28;20121;-77
2021/07/18 07:42:45;;;;;;;5.20;2.03;;;24.60;63.30;;;;;;6197732;28;20727;-77
2021/07/18 07:45:47;;;;;;;3.42;1.20;;;24.90;62.10;;;;;;6198326;28;20161;-77
2021/07/18 07:48:49;;;;;;;3.33;1.50;;;25.10;62.10;;;;;;6198279;28;20096;-77
2021/07/18 07:51:51;;;;;;;2.65;1.50;;;25.40;60.60;;;;;;6198499;28;20082;-78
2021/07/18 07:54:53;;;;;;;6.07;1.70;;;25.60;59.70;;;;;;6198607;28;20176;-77
2021/07/18 07:57:56;;;;;;;4.63;1.48;;;25.70;58.90;;;;;;6198548;28;20395;-77
2021/07/18 08:00:58;;;;;;;3.17;1.58;;;25.80;58.60;;;;;;6197704;28;20465;-77
2021/07/18 08:03:59;;;;;;;3.28;1.58;;;25.90;59.20;;;;;;6197666;28;20565;-77
2021/07/18 08:07:01;;;;;;;4.63;1.52;;;26.10;58.50;;;;;;6198052;28;20177;-77
2021/07/18 08:10:06;;;;;;;2.55;1.42;;;26.20;57.60;;;;;;6198864;28;20128;-77
2021/07/18 08:16:12;;;;;;;3.33;1.40;;;26.40;56.80;;;;;;6244853;28;20046;-76
2021/07/18 08:19:14;;;;;;;5.53;1.48;;;26.50;56.80;;;;;;6247227;28;20073;-76
2021/07/18 08:22:16;;;;;;;3.78;1.45;;;26.70;56.20;;;;;;6246911;28;20045;-76
2021/07/18 08:25:19;;;;;;;4.53;1.95;;;26.80;56.90;;;;;;6228331;28;20129;-76
2021/07/18 08:28:23;;;;;;;1.63;1.25;;;26.90;56.10;;;;;;6222429;28;20574;-76
2021/07/18 08:31:26;;;;;;;3.40;1.40;;;27.00;55.80;;;;;;6221437;28;20049;-76
2021/07/18 08:34:34;;;;;;;1.60;1.30;;;27.10;55.90;;;;;;6222710;28;20125;-76
2021/07/18 08:37:36;;;;;;;;;;;27.20;56.70;;;;;;6223127;28;20077;-77
2021/07/18 08:40:39;;;;;;;3.45;1.30;;;27.40;55.60;;;;;;6221160;28;20008;-77
2021/07/18 08:43:41;;;;;;;4.18;1.75;;;27.40;55.40;;;;;;6224627;28;20052;-77
2021/07/18 08:46:44;;;;;;;5.05;1.65;;;27.50;54.10;;;;;;6224789;28;20050;-77
2021/07/18 08:49:47;;;;;;;3.20;2.03;;;27.40;55.50;;;;;;6224583;28;20045;-76
2021/07/18 08:52:52;;;;;;;6.78;2.00;;;27.60;55.80;;;;;;6223879;28;20046;-77
2021/07/18 08:55:54;;;;;;;2.70;2.22;;;27.90;54.40;;;;;;6224736;28;20056;-77
2021/07/18 08:58:56;;;;;;;4.80;1.65;;;27.90;54.10;;;;;;6225701;28;20093;-76
2021/07/18 09:02:00;;;;;;;5.30;2.10;;;27.90;55.00;;;;;;6225466;28;20050;-76
2021/07/18 09:05:02;;;;;;;4.65;1.98;;;27.90;55.00;;;;;;6224781;28;20088;-77
2021/07/18 09:08:08;;;;;;;2.88;1.60;;;27.90;54.40;;;;;;6224581;28;20184;-77
2021/07/18 09:11:21;;;;;;;3.00;2.53;;;27.80;54.50;;;;;;6224926;28;20071;-76
2021/07/18 09:14:23;;;;;;;6.32;1.85;;;27.70;54.80;;;;;;6224520;28;20046;-76
2021/07/18 09:17:26;;;;;;;4.18;2.35;;;27.70;55.50;;;;;;6224510;28;20191;-77
2021/07/18 09:20:39;;;;;;;2.60;1.92;;;27.60;54.30;;;;;;6227567;28;20045;-79
2021/07/18 09:23:41;;;;;;;4.03;1.67;;;27.50;55.30;;;;;;6230782;28;20129;-79
2021/07/18 09:26:43;;;;;;;2.58;1.50;;;27.50;56.00;;;;;;6230970;28;20046;-80
2021/07/18 09:29:48;;;;;;;5.00;2.05;;;27.60;55.70;;;;;;6232766;28;20057;-80
2021/07/18 09:32:51;;;;;;;4.95;1.42;;;27.40;54.20;;;;;;6222720;28;20591;-80
2021/07/18 09:36:11;;;;;;;4.85;1.48;;;27.40;56.10;;;;;;6231867;28;20047;-80
2021/07/18 09:39:14;;;;;;;2.90;1.42;;;27.40;55.60;;;;;;6233113;28;20056;-79
2021/07/18 09:42:37;;;;;;;4.95;1.42;;;27.40;55.30;;;;;;6232153;28;20503;-80
2021/07/18 09:45:40;;;;;;;3.17;1.58;;;27.50;55.90;;;;;;6230347;28;20088;-79
2021/07/18 09:48:46;;;;;;;3.67;1.60;;;27.60;55.90;;;;;;6229748;28;20050;-78
2021/07/18 09:51:48;;;;;;;4.55;1.60;;;27.70;55.00;;;;;;6228725;28;20050;-78
2021/07/18 09:54:51;;;;;;;3.50;1.98;;;27.70;55.60;;;;;;6227758;28;20064;-79
2021/07/18 09:57:54;;;;;;;4.47;2.45;;;27.80;55.30;;;;;;6230815;28;20046;-79
2021/07/18 10:00:56;;;;;;;3.38;1.90;;;28.10;54.80;;;;;;6229294;28;20615;-78
2021/07/18 10:04:00;;;;;;;5.05;1.77;;;28.20;54.40;;;;;;6231214;28;20046;-79
2021/07/18 10:07:06;;;;;;;7.43;2.58;;;28.40;54.20;;;;;;6231421;28;20069;-80
2021/07/18 10:10:09;;;;;;;4.75;1.83;;;28.50;54.30;;;;;;6231210;28;20061;-80
2021/07/18 10:13:11;;;;;;;4.35;1.60;;;28.50;53.80;;;;;;6231562;28;20542;-79
2021/07/18 10:16:14;;;;;;;4.30;2.10;;;28.60;53.10;;;;;;6226844;28;20069;-78
2021/07/18 10:19:18;;;;;;;2.97;1.55;;;28.50;54.10;;;;;;6228386;28;20065;-78
2021/07/18 10:22:20;;;;;;;2.33;1.60;;;28.70;53.70;;;;;;6230075;28;20183;-79
2021/07/18 10:25:25;;;;;;;2.95;1.55;;;28.80;53.60;;;;;;6228305;28;20042;-78
2021/07/18 10:28:27;;;;;;;3.72;1.92;;;28.90;53.10;;;;;;6229530;28;20586;-79
2021/07/18 10:31:34;;;;;;;12.07;3.08;;;28.80;52.40;;;;;;6228616;28;20116;-79
2021/07/18 10:34:37;;;;;;;2.33;1.27;;;29.00;52.90;;;;;;6229354;28;20092;-79
2021/07/18 10:37:40;;;;;;;3.63;1.80;;;29.20;52.80;;;;;;6227481;28;20073;-78
2021/07/18 10:40:47;;;;;;;5.57;1.63;;;29.40;52.40;;;;;;6226554;28;20116;-78
2021/07/18 10:43:51;;;;;;;6.85;2.20;;;29.40;52.50;;;;;;6226817;28;20034;-78
2021/07/18 10:46:55;;;;;;;2.33;1.50;;;29.70;52.80;;;;;;6225821;28;20085;-78
2021/07/18 10:50:00;;;;;;;2.35;1.75;;;29.90;50.90;;;;;;6226895;28;20562;-79
2021/07/18 10:53:16;;;;;;;5.05;1.63;;;30.00;50.20;;;;;;6222303;28;20042;-78
2021/07/18 10:56:20;;;;;;;3.58;1.92;;;29.90;50.70;;;;;;6226562;28;20128;-80
2021/07/18 10:59:34;;;;;;;5.45;1.80;;;30.00;50.40;;;;;;6227500;28;20157;-79
2021/07/18 11:02:35;;;;;;;2.35;1.85;;;30.20;50.60;;;;;;6229487;28;20423;-79
2021/07/18 11:05:43;;;;;;;5.43;2.00;;;30.10;51.20;;;;;;6227999;28;20245;-79
2021/07/18 11:09:12;;;;;;;3.70;2.10;;;30.30;51.20;;;;;;6228917;28;20438;-79
2021/07/18 11:12:22;;;;;;;5.97;1.30;;;30.50;50.30;;;;;;6226576;28;20124;-79
2021/07/18 11:15:37;;;;;;;4.57;2.08;;;30.50;49.60;;;;;;6228328;28;20053;-79
2021/07/18 11:18:41;;;;;;;6.22;2.33;;;30.50;49.60;;;;;;6227879;28;20418;-79
2021/07/18 11:21:48;;;;;;;4.22;2.17;;;30.40;48.60;;;;;;6227220;28;20700;-79
2021/07/18 11:24:53;;;;;;;2.95;1.83;;;30.30;49.60;;;;;;6227938;28;20045;-79
2021/07/18 11:27:55;;;;;;;6.07;2.65;;;30.30;49.90;;;;;;6229328;28;20054;-79
2021/07/18 11:31:18;;;;;;;4.55;2.13;;;30.50;49.20;;;;;;6230378;28;20452;-79
2021/07/18 11:34:23;;;;;;;5.22;1.60;;;30.50;48.60;;;;;;6224073;28;20049;-79
2021/07/18 11:37:27;;;;;;;5.85;1.90;;;30.60;48.60;;;;;;6228583;28;20137;-78
2021/07/18 11:40:29;;;;;;;3.30;1.75;;;30.60;47.60;;;;;;6227342;28;20109;-78
2021/07/18 11:43:31;;;;;;;5.60;2.40;;;30.60;49.10;;;;;;6225496;28;20081;-79
2021/07/18 11:46:35;;;;;;;4.45;2.00;;;30.90;48.50;;;;;;6224611;28;20185;-79
2021/07/18 11:49:40;;;;;;;4.80;2.17;;;31.00;48.50;;;;;;6226691;28;20088;-80
2021/07/18 11:52:43;;;;;;;5.53;2.08;;;31.10;48.30;;;;;;6226075;28;20072;-80
2021/07/18 11:55:45;;;;;;;4.43;2.28;;;31.20;46.90;;;;;;6225699;28;20127;-79
2021/07/18 11:58:46;;;;;;;3.03;1.88;;;31.00;48.20;;;;;;6226482;28;20045;-80
2021/07/18 12:01:50;;;;;;;8.10;3.25;;;31.10;47.80;;;;;;6226512;28;20090;-80
2021/07/18 12:05:04;;;;;;;4.25;2.00;;;31.20;47.40;;;;;;6226881;28;20042;-79
2021/07/18 12:08:08;;;;;;;7.20;2.28;;;31.30;47.20;;;;;;6225650;28;20042;-80
2021/07/18 12:11:12;;;;;;;5.60;2.95;;;31.40;47.10;;;;;;6227536;28;20100;-80
2021/07/18 12:14:14;;;;;;;7.35;2.08;;;31.50;47.60;;;;;;6226648;28;20139;-79
2021/07/18 12:17:16;;;;;;;6.82;2.38;;;31.60;47.60;;;;;;6229757;28;20085;-80
2021/07/18 12:20:22;;;;;;;4.45;2.53;;;31.70;47.50;;;;;;6231249;28;20488;-80
2021/07/18 12:23:26;;;;;;;3.80;2.93;;;31.60;47.50;;;;;;6231873;28;20053;-79
2021/07/18 12:26:27;;;;;;;4.10;3.03;;;31.70;47.40;;;;;;6233804;28;20488;-80
2021/07/18 12:29:32;;;;;;;7.88;2.58;;;31.70;47.10;;;;;;6232132;28;20510;-79
2021/07/18 12:32:35;;;;;;;6.60;2.30;;;31.80;46.60;;;;;;6230946;28;20058;-80
2021/07/18 12:35:36;;;;;;;4.13;2.58;;;31.80;46.80;;;;;;6229271;28;20116;-80
2021/07/18 12:38:40;;;;;;;8.45;2.80;;;31.90;47.30;;;;;;6232164;28;20129;-79
2021/07/18 12:41:42;;;;;;;7.47;3.47;;;31.90;46.40;;;;;;6231807;28;20054;-80
2021/07/18 12:44:49;;;;;;;4.13;3.20;;;31.90;46.40;;;;;;6230628;28;20046;-80
2021/07/18 12:47:59;;;;;;;6.20;2.85;;;32.00;46.40;;;;;;6232260;28;20129;-79
2021/07/18 12:51:14;;;;;;;5.65;3.90;;;31.80;47.00;;;;;;6231801;28;20082;-80
2021/07/18 12:54:17;;;;;;;8.75;3.35;;;31.90;46.40;;;;;;6230407;28;20060;-80
2021/07/18 12:57:29;;;;;;;7.43;4.47;;;31.90;46.10;;;;;;6231853;28;20113;-80
2021/07/18 13:00:32;;;;;;;6.25;3.25;;;32.10;46.90;;;;;;6231238;28;20042;-79
2021/07/18 13:03:37;;;;;;;8.68;4.25;;;32.10;45.60;;;;;;6232298;28;20076;-80
2021/07/18 13:06:46;;;;;;;6.45;4.78;;;32.00;45.20;;;;;;6233569;28;20113;-80
2021/07/18 13:10:07;;;;;;;6.43;3.75;;;32.20;45.40;;;;;;6234077;28;20053;-79
2021/07/18 13:13:10;;;;;;;11.65;4.95;;;32.30;45.50;;;;;;6233229;28;20153;-79
2021/07/18 13:16:12;;;;;;;5.55;4.30;;;32.30;45.20;;;;;;6233303;28;20054;-79
2021/07/18 13:19:17;;;;;;;7.43;5.03;;;32.40;45.20;;;;;;6233919;28;20083;-79
2021/07/18 13:22:19;;;;;;;9.07;5.32;;;32.30;44.20;;;;;;6233372;28;20064;-79
2021/07/18 13:25:25;;;;;;;5.63;4.68;;;32.30;43.90;;;;;;6233927;28;20136;-80
2021/07/18 13:28:27;;;;;;;9.45;4.90;;;32.30;44.30;;;;;;6233511;28;20046;-80
2021/07/18 13:31:29;;;;;;;6.40;4.03;;;32.30;45.00;;;;;;6233854;28;20132;-79
2021/07/18 13:34:31;;;;;;;5.45;3.58;;;32.40;44.90;;;;;;6233087;28;20050;-79
2021/07/18 13:37:37;;;;;;;6.25;4.50;;;32.40;44.90;;;;;;6230352;28;20136;-79
2021/07/18 13:40:42;;;;;;;6.07;4.55;;;32.40;44.20;;;;;;6232090;28;20065;-79
2021/07/18 13:43:46;;;;;;;9.48;5.05;;;32.40;42.90;;;;;;6233803;28;20060;-79
2021/07/18 13:46:47;;;;;;;8.30;5.43;;;32.50;43.70;;;;;;6232790;28;20041;-80
2021/07/18 13:49:49;;;;;;;10.05;6.15;;;32.60;43.40;;;;;;6234004;28;20129;-79
2021/07/18 13:52:51;;;;;;;6.85;4.45;;;32.70;42.30;;;;;;6233050;28;20096;-79
2021/07/18 13:55:55;;;;;;;10.27;4.90;;;32.80;42.70;;;;;;6232147;28;20566;-79
2021/07/18 13:58:56;;;;;;;6.95;5.35;;;32.80;42.10;;;;;;6232555;28;20176;-79
2021/07/18 14:01:58;;;;;;;5.47;3.83;;;33.00;42.60;;;;;;6233635;28;20117;-80
2021/07/18 14:05:00;;;;;;;6.82;5.18;;;33.10;41.80;;;;;;6230889;28;20115;-80
2021/07/18 14:08:02;;;;;;;8.73;5.22;;;33.00;42.20;;;;;;6233010;28;20046;-81
2021/07/18 14:11:05;;;;;;;4.70;4.15;;;32.80;41.30;;;;;;6232950;28;20057;-81
2021/07/18 14:14:08;;;;;;;4.45;3.60;;;32.60;40.70;;;;;;6243617;22;20074;-74
2021/07/18 14:17:09;;;;;;;4.60;3.65;;;32.60;40.60;;;;;;6225568;28;20364;-75
2021/07/18 14:20:14;;;;;;;8.75;4.63;;;32.60;40.60;;;;;;6224216;28;20064;-74
2021/07/18 14:23:15;;;;;;;3.85;2.88;;;32.60;41.80;;;;;;6223980;28;20050;-75
2021/07/18 14:26:19;;;;;;;6.22;2.65;;;32.70;40.70;;;;;;6224959;28;20042;-74
2021/07/18 14:29:20;;;;;;;5.00;3.03;;;33.00;41.00;;;;;;6224773;28;20074;-74
2021/07/18 14:32:22;;;;;;;4.97;2.10;;;33.10;39.90;;;;;;6223739;28;20124;-75
2021/07/18 14:35:25;;;;;;;3.45;2.08;;;33.10;39.80;;;;;;6217103;28;20061;-74
2021/07/18 14:38:27;;;;;;;4.78;1.85;;;33.10;39.40;;;;;;6183625;28;20178;-74
2021/07/18 14:41:30;;;;;;;3.00;1.90;;;33.10;39.90;;;;;;6174380;28;20390;-74
2021/07/18 14:44:32;;;;;;;3.63;1.88;;;33.10;40.00;;;;;;6174456;28;20133;-74
2021/07/18 14:47:34;;;;;;;5.35;1.92;;;33.10;39.70;;;;;;6174322;28;20531;-74
2021/07/18 14:50:36;;;;;;;2.47;1.73;;;33.00;40.20;;;;;;6180575;28;20073;-74
2021/07/18 14:53:38;;;;;;;3.22;1.35;;;33.10;40.10;;;;;;6198641;28;20050;-74
2021/07/18 14:56:42;;;;;;;4.43;1.70;;;33.00;40.20;;;;;;6197875;28;20054;-75
2021/07/18 14:59:44;;;;;;;2.80;1.58;;;33.00;41.00;;;;;;6198812;28;20058;-74
2021/07/18 15:02:46;;;;;;;3.08;1.33;;;33.00;40.30;;;;;;6198855;28;20569;-74
2021/07/18 15:05:48;;;;;;;5.03;1.40;;;33.10;40.70;;;;;;6213808;28;20068;-74
2021/07/18 15:08:49;;;;;;;2.33;1.08;;;33.10;40.90;;;;;;6223187;28;20533;-74
2021/07/18 15:11:52;;;;;;;2.17;1.13;;;33.10;40.00;;;;;;6224006;28;20132;-75
2021/07/18 15:14:54;;;;;;;3.20;1.67;;;32.90;40.30;;;;;;6203060;28;20097;-75
2021/07/18 15:17:56;;;;;;;2.92;1.20;;;32.90;40.50;;;;;;6199298;28;20492;-75
2021/07/18 15:20:58;;;;;;;2.08;1.30;;;32.90;40.70;;;;;;6199518;28;20133;-74
2021/07/18 15:24:00;;;;;;;2.30;1.25;;;32.90;40.80;;;;;;6200268;28;20159;-74
2021/07/18 15:27:04;;;;;;;4.05;1.20;;;33.00;40.80;;;;;;6199361;28;20053;-76
2021/07/18 15:30:09;;;;;;;1.38;0.98;;;33.00;40.20;;;;;;6199528;28;20050;-75
2021/07/18 15:33:11;;;;;;;4.70;1.20;;;33.00;40.20;;;;;;6201105;28;20173;-75
2021/07/18 15:36:13;;;;;;;1.48;1.00;;;33.10;39.80;;;;;;6222717;28;20035;-74
2021/07/18 15:39:15;;;;;;;2.42;1.10;;;33.10;39.60;;;;;;6229616;28;20046;-74
2021/07/18 15:42:19;;;;;;;3.70;1.25;;;33.10;39.80;;;;;;6229197;28;20039;-74
2021/07/18 15:45:20;;;;;;;1.88;1.35;;;33.10;39.20;;;;;;6230229;28;20073;-74
2021/07/18 15:48:22;;;;;;;2.90;1.10;;;33.00;39.80;;;;;;6229211;28;20053;-74
2021/07/18 15:51:24;;;;;;;2.33;1.08;;;33.00;39.90;;;;;;6231319;28;20030;-74